Time;durP1;ratioP1;P1;durP2;ratioP2;P2;SDS_P1;SDS_P2;PMS_P1;PMS_P2;Temp;Humidity;BMP_temperature;BMP_pressure;BME280_temperature;BME280_humidity;BME280_pressure;Samples;Min_cycle;Max_cycle;Signal;HPM_P1;HPM_P2
2023/04/21 00:01:00;;;;;;;6.43;4.37;;;14.30;99.90;;;14.81;50.02;100985.91;6056217;23;97887;-54
2023/04/21 00:03:27;;;;;;;5.50;3.50;;;14.20;99.90;;;14.85;48.70;100984.81;6079425;22;97461;-50
2023/04/21 00:05:57;;;;;;;5.23;1.43;;;14.10;99.90;;;14.74;48.46;100972.03;6077332;22;100358;-54
2023/04/21 00:08:25;;;;;;;1.67;1.37;;;14.00;99.90;;;14.73;48.29;100966.81;6085787;23;98423;-54
2023/04/21 00:10:51;;;;;;;1.63;1.40;;;14.00;99.90;;;14.87;47.70;100967.88;6076209;22;97264;-53
2023/04/21 00:13:17;;;;;;;1.87;1.33;;;14.40;99.90;;;14.97;47.61;100957.66;6054923;23;110741;-53
2023/04/21 00:15:43;;;;;;;6.27;4.10;;;14.60;99.90;;;15.01;48.53;100955.72;6061936;22;102833;-50
2023/04/21 00:18:08;;;;;;;6.23;3.20;;;14.50;99.90;;;14.89;48.37;100966.00;6053437;23;97431;-54
2023/04/21 00:20:35;;;;;;;5.57;3.30;;;14.40;99.90;;;14.92;48.29;100970.31;6078490;22;96953;-48
2023/04/21 00:23:01;;;;;;;8.70;3.97;;;14.30;99.90;;;14.84;49.87;100962.72;6080751;22;98395;-51
2023/04/21 00:25:27;;;;;;;5.13;2.47;;;14.20;99.90;;;14.83;48.54;100960.13;6080563;22;97841;-50
2023/04/21 00:27:52;;;;;;;6.77;3.50;;;14.10;99.90;;;14.74;49.45;100960.56;6078218;22;97285;-51
2023/04/21 00:30:18;;;;;;;9.43;4.33;;;14.00;99.90;;;14.72;51.73;100947.34;6078847;22;112121;-50
2023/04/21 00:32:44;;;;;;;6.37;3.53;;;14.00;99.90;;;14.70;51.52;100940.41;6049551;22;107762;-55
2023/04/21 00:35:10;;;;;;;5.27;3.17;;;14.00;99.90;;;14.63;49.26;100946.97;6081166;22;97795;-53
2023/04/21 00:37:35;;;;;;;7.73;3.63;;;13.90;99.90;;;14.63;50.02;100952.28;6074431;22;97448;-53
2023/04/21 00:40:03;;;;;;;5.17;3.67;;;13.90;99.90;;;14.57;49.98;100938.34;6081031;22;97312;-53
2023/04/21 00:42:29;;;;;;;8.40;4.80;;;13.90;99.90;;;14.58;50.72;100944.50;6075666;22;97722;-50
2023/04/21 00:44:55;;;;;;;3.37;2.40;;;14.00;99.90;;;14.49;50.09;100945.81;6052128;23;97793;-51
2023/04/21 00:47:20;;;;;;;1.83;1.37;;;13.90;99.90;;;14.61;48.84;100941.72;6096257;22;97301;-53
2023/04/21 00:49:47;;;;;;;3.27;2.00;;;14.00;99.90;;;14.75;48.34;100941.03;6061178;22;97121;-51
2023/04/21 00:52:16;;;;;;;1.90;1.57;;;14.30;99.90;;;14.86;48.13;100936.94;6066086;23;97437;-54
2023/04/21 00:54:42;;;;;;;6.83;4.00;;;14.50;99.90;;;14.87;50.60;100937.78;6089123;22;98118;-50
2023/04/21 00:57:10;;;;;;;4.63;2.93;;;14.40;99.90;;;14.88;48.65;100934.19;6091717;22;113496;-54
2023/04/21 00:59:35;;;;;;;5.60;3.23;;;14.30;99.90;;;14.93;48.36;100929.53;6090217;22;97013;-48
2023/04/21 01:02:01;;;;;;;4.33;2.83;;;14.40;99.90;;;14.91;48.29;100920.78;6067633;23;100702;-50
2023/04/21 01:04:28;;;;;;;7.47;4.40;;;14.30;99.90;;;14.85;50.10;100921.06;6066161;23;97501;-52
2023/04/21 01:06:54;;;;;;;6.60;4.27;;;14.30;99.90;;;14.92;48.73;100913.69;6090876;22;99746;-54
2023/04/21 01:09:20;;;;;;;7.90;4.17;;;14.30;99.90;;;14.88;48.53;100905.84;6065546;23;108393;-54
2023/04/21 01:12:09;;;;;;;4.50;2.47;;;14.20;99.90;;;14.83;48.86;100912.31;6061136;23;98698;-52
2023/04/21 01:14:38;;;;;;;9.50;4.97;;;14.20;99.90;;;14.71;53.69;100911.13;6066005;22;96658;-54
2023/04/21 01:17:06;;;;;;;6.93;3.97;;;14.10;99.90;;;14.47;53.26;100915.84;6066970;23;102576;-51
2023/04/21 01:19:40;;;;;;;8.60;4.60;;;13.80;99.90;;;14.38;53.83;100910.06;6088003;22;97187;-49
2023/04/21 01:22:11;;;;;;;10.27;4.43;;;13.70;99.90;;;14.39;52.07;100915.28;6092551;22;97090;-52
2023/04/21 01:24:46;;;;;;;10.13;5.10;;;13.70;99.90;;;14.42;51.03;100912.50;6090595;22;97719;-47
2023/04/21 01:27:15;;;;;;;6.23;4.20;;;13.80;99.90;;;14.24;55.79;100919.53;6092695;22;98124;-50
2023/04/21 01:29:43;;;;;;;9.63;5.00;;;13.60;99.90;;;14.19;51.77;100905.63;6088481;23;97438;-52
2023/04/21 01:32:13;;;;;;;7.43;4.70;;;13.50;99.90;;;14.17;53.74;100906.59;6093185;22;96822;-51
2023/04/21 01:34:40;;;;;;;9.00;5.00;;;13.50;99.90;;;14.22;51.35;100905.47;6041874;22;97583;-53
2023/04/21 01:37:12;;;;;;;7.53;4.23;;;13.60;99.90;;;14.30;50.76;100913.06;6090282;22;97174;-51
2023/04/21 01:39:44;;;;;;;7.63;4.60;;;13.70;99.90;;;14.35;51.92;100920.84;6061370;22;97749;-50
2023/04/21 01:42:11;;;;;;;7.93;4.50;;;13.70;99.90;;;14.33;52.77;100912.94;6089507;22;97503;-54
2023/04/21 01:44:40;;;;;;;9.17;4.73;;;13.70;99.90;;;14.35;52.33;100919.03;6066971;22;98015;-52
2023/04/21 01:47:07;;;;;;;8.67;5.03;;;13.70;99.90;;;14.27;52.41;100919.38;6091394;22;97278;-51
2023/04/21 01:49:33;;;;;;;11.77;4.40;;;13.60;99.90;;;14.28;52.24;100914.94;6057562;23;102735;-53
2023/04/21 01:51:59;;;;;;;9.23;5.20;;;13.60;99.90;;;14.26;52.21;100917.66;6071936;23;112870;-53
2023/04/21 01:54:24;;;;;;;7.30;4.50;;;13.50;99.90;;;14.25;52.47;100920.41;6098887;23;97874;-50
2023/04/21 01:56:50;;;;;;;7.00;4.07;;;13.50;99.90;;;14.23;52.42;100911.66;6059058;22;111492;-49
2023/04/21 01:59:16;;;;;;;7.87;4.97;;;13.50;99.90;;;14.26;52.33;100922.13;6093390;22;97595;-54
2023/04/21 02:01:42;;;;;;;10.50;5.30;;;13.50;99.90;;;14.23;52.48;100919.59;6086204;22;102412;-51
2023/04/21 02:04:07;;;;;;;8.37;4.83;;;13.50;99.90;;;14.15;53.83;100919.09;6088834;22;116714;-53
2023/04/21 02:06:33;;;;;;;8.53;4.43;;;13.40;99.90;;;14.12;53.01;100924.53;6092890;23;97987;-50
2023/04/21 02:08:59;;;;;;;7.17;3.77;;;13.40;99.90;;;14.21;51.57;100925.00;6091261;22;97373;-50
2023/04/21 02:11:25;;;;;;;8.53;4.20;;;13.50;99.90;;;14.23;52.01;100927.56;6092604;22;97414;-52
2023/04/21 02:13:53;;;;;;;4.47;2.87;;;13.50;99.90;;;14.32;50.64;100916.53;6088090;22;98697;-51
2023/04/21 02:16:19;;;;;;;6.37;4.23;;;13.70;99.90;;;14.38;51.38;100924.19;6064738;23;99711;-51
2023/04/21 02:18:48;;;;;;;8.20;4.70;;;13.70;99.90;;;14.38;51.42;100921.53;6060663;22;97373;-54
2023/04/21 02:21:14;;;;;;;10.03;5.07;;;13.70;99.90;;;14.36;52.60;100918.09;6092706;22;97648;-49
2023/04/21 02:23:40;;;;;;;9.57;4.67;;;13.70;99.90;;;14.41;51.35;100910.78;6086033;22;98938;-49
2023/04/21 02:26:06;;;;;;;7.43;4.43;;;13.70;99.90;;;14.46;51.22;100919.41;6064881;23;97179;-51
2023/04/21 02:28:32;;;;;;;8.70;4.30;;;13.80;99.90;;;14.43;52.08;100913.34;6056851;22;97600;-49
2023/04/21 02:30:57;;;;;;;8.53;5.50;;;13.80;99.90;;;14.48;51.39;100906.94;6090017;22;96924;-51
2023/04/21 02:33:23;;;;;;;2.97;2.50;;;13.80;99.90;;;14.47;50.55;100914.97;6064504;23;97426;-51
2023/04/21 02:35:49;;;;;;;6.10;3.57;;;13.80;99.90;;;14.47;50.59;100915.84;6089429;22;118953;-55
2023/04/21 02:38:15;;;;;;;8.13;3.83;;;13.80;99.90;;;14.53;50.55;100912.88;6094635;22;99523;-49
2023/04/21 02:40:41;;;;;;;4.60;2.73;;;13.80;99.90;;;14.61;49.52;100906.31;6088122;22;97480;-52
2023/04/21 02:43:07;;;;;;;3.50;2.27;;;14.00;99.90;;;14.69;49.62;100901.53;6061395;23;97383;-47
2023/04/21 02:45:33;;;;;;;7.60;4.50;;;14.10;99.90;;;14.75;49.70;100903.88;6088115;22;97003;-50
2023/04/21 02:47:58;;;;;;;5.33;3.60;;;14.20;99.90;;;14.77;49.36;100900.22;6061644;23;110333;-50
2023/04/21 02:50:25;;;;;;;10.40;5.10;;;14.20;99.90;;;14.75;51.04;100909.16;6090966;22;97061;-49
2023/04/21 02:52:53;;;;;;;7.43;4.40;;;14.10;99.90;;;14.70;50.96;100919.16;6094637;22;97951;-49
2023/04/21 02:55:21;;;;;;;3.27;2.50;;;14.00;99.90;;;14.73;49.41;100914.56;6091066;22;98406;-49
2023/04/21 02:57:47;;;;;;;6.67;3.70;;;14.00;99.90;;;14.79;49.46;100918.72;6087748;22;98085;-48
2023/04/21 03:00:14;;;;;;;3.90;2.60;;;14.20;99.90;;;14.78;49.21;100911.69;6092723;22;97551;-51
2023/04/21 03:02:40;;;;;;;2.03;1.70;;;14.10;99.90;;;14.81;49.09;100909.75;6088247;22;98912;-48
2023/04/21 03:05:06;;;;;;;3.67;1.80;;;14.20;99.90;;;14.85;49.11;100921.06;6094064;23;97369;-52
2023/04/21 03:07:32;;;;;;;6.17;3.87;;;14.30;99.90;;;14.89;49.19;100922.63;6095247;22;97076;-49
2023/04/21 03:09:58;;;;;;;8.00;4.73;;;14.30;99.90;;;14.87;49.96;100924.50;6092680;22;97563;-49
2023/04/21 03:12:24;;;;;;;6.77;4.47;;;14.20;99.90;;;14.85;49.82;100926.38;6098972;22;98363;-50
2023/04/21 03:14:50;;;;;;;8.80;4.73;;;14.20;99.90;;;14.80;50.20;100933.72;6099978;22;97066;-48
2023/04/21 03:17:16;;;;;;;4.80;3.63;;;14.10;99.90;;;14.77;49.77;100917.94;6056526;22;97071;-51
2023/04/21 03:19:42;;;;;;;7.80;4.63;;;14.00;99.90;;;14.75;50.85;100927.75;6071367;22;102568;-49
2023/04/21 03:22:07;;;;;;;3.23;1.77;;;14.00;99.90;;;14.69;49.66;100930.72;6099227;23;97504;-50
2023/04/21 03:24:34;;;;;;;2.30;1.50;;;13.90;99.90;;;14.72;49.45;100927.91;6092078;22;105412;-51
2023/04/21 03:27:01;;;;;;;8.17;4.03;;;14.00;99.90;;;14.77;49.49;100923.25;6092143;22;97436;-53
2023/04/21 03:29:27;;;;;;;6.63;3.97;;;14.10;99.90;;;14.80;49.47;100928.41;6092661;22;97399;-54
2023/04/21 03:31:52;;;;;;;3.07;1.80;;;14.20;99.90;;;14.78;49.46;100927.63;6087346;22;122869;-49
2023/04/21 03:34:18;;;;;;;6.10;4.07;;;14.10;99.90;;;14.81;49.46;100935.44;6090026;22;123085;-52
2023/04/21 03:36:44;;;;;;;8.37;4.17;;;14.20;99.90;;;14.74;50.25;100928.69;6060759;22;114644;-49
2023/04/21 03:39:10;;;;;;;5.97;3.57;;;14.10;99.90;;;14.67;50.69;100932.59;6092860;22;97185;-48
2023/04/21 03:41:35;;;;;;;6.47;3.77;;;13.90;99.90;;;14.62;50.52;100945.25;6086963;22;105361;-53
2023/04/21 03:44:01;;;;;;;8.93;4.60;;;13.80;99.90;;;14.58;51.13;100928.56;6091739;22;113428;-49
2023/04/21 03:46:27;;;;;;;5.43;3.23;;;13.80;99.90;;;14.52;50.70;100932.41;6093438;22;97316;-50
2023/04/21 03:48:53;;;;;;;1.83;1.63;;;13.70;99.90;;;14.54;50.02;100935.84;6087911;22;103993;-52
2023/04/21 03:51:18;;;;;;;5.33;3.30;;;13.80;99.90;;;14.58;49.79;100929.44;6093052;22;97388;-49
2023/04/21 03:53:44;;;;;;;7.77;4.27;;;13.80;99.90;;;14.62;49.70;100924.88;6087746;22;98327;-47
2023/04/21 03:56:10;;;;;;;6.73;4.00;;;13.90;99.90;;;14.61;50.05;100927.56;6091764;22;97393;-49
2023/04/21 03:58:36;;;;;;;6.03;3.60;;;13.90;99.90;;;14.53;50.53;100931.47;6061887;22;97170;-49
2023/04/21 04:01:06;;;;;;;6.70;4.23;;;13.80;99.90;;;14.48;50.88;100933.50;6090219;22;105101;-52
2023/04/21 04:03:32;;;;;;;3.87;2.00;;;13.70;99.90;;;14.51;50.00;100925.38;6087743;22;97832;-50
2023/04/21 04:05:58;;;;;;;3.73;2.43;;;13.70;99.90;;;14.54;50.04;100933.19;6097694;23;97445;-52
2023/04/21 04:08:24;;;;;;;3.13;1.60;;;13.80;99.90;;;14.55;49.85;100926.94;6093724;23;99524;-52
2023/04/21 04:10:50;;;;;;;4.60;2.90;;;13.80;99.90;;;14.51;50.28;100928.03;6086090;22;98478;-50
2023/04/21 04:13:16;;;;;;;6.40;3.43;;;13.70;99.90;;;14.55;50.06;100924.28;6090162;22;115826;-50
2023/04/21 04:15:41;;;;;;;3.87;2.50;;;13.80;99.90;;;14.57;49.72;100925.06;6036521;23;97425;-49
2023/04/21 04:18:07;;;;;;;5.07;2.97;;;13.80;99.90;;;14.58;50.12;100928.56;6098588;23;97188;-51
2023/04/21 04:20:33;;;;;;;6.17;3.30;;;13.90;99.90;;;14.59;49.88;100931.16;6087058;22;121879;-51
2023/04/21 04:22:59;;;;;;;7.73;4.67;;;13.80;99.90;;;14.56;50.42;100926.00;6063865;23;116167;-50
2023/04/21 04:25:24;;;;;;;6.47;4.47;;;13.80;99.90;;;14.36;51.36;100928.72;6071777;23;97316;-49
2023/04/21 04:27:50;;;;;;;8.33;4.50;;;13.60;99.90;;;14.34;51.24;100922.63;6092463;22;96984;-53
2023/04/21 04:30:16;;;;;;;2.80;1.87;;;13.60;99.90;;;14.33;50.61;100928.00;6095937;22;97318;-51
2023/04/21 04:32:42;;;;;;;2.63;1.57;;;13.50;99.90;;;14.41;50.31;100932.00;6093010;22;97362;-51
2023/04/21 04:35:09;;;;;;;3.00;2.10;;;13.70;99.90;;;14.34;50.53;100930.59;6069514;23;105724;-51
2023/04/21 04:37:40;;;;;;;2.03;1.30;;;13.70;99.90;;;14.50;50.01;100928.97;6093504;22;97386;-47
2023/04/21 04:40:09;;;;;;;6.87;3.97;;;14.00;99.90;;;14.45;50.58;100932.75;6091202;22;97329;-51
2023/04/21 04:42:35;;;;;;;1.30;1.20;;;13.90;99.90;;;14.56;49.84;100931.31;6088074;22;97724;-50
2023/04/21 04:45:01;;;;;;;5.47;3.37;;;14.00;99.90;;;14.64;49.85;100932.75;6092774;23;97275;-55
2023/04/21 04:47:28;;;;;;;8.57;5.07;;;14.10;99.90;;;14.52;50.57;100935.06;6096832;23;96952;-50
2023/04/21 04:49:54;;;;;;;2.87;1.60;;;13.90;99.90;;;14.48;50.37;100930.84;6085300;22;97442;-47
2023/04/21 04:52:20;;;;;;;7.93;3.73;;;13.70;99.90;;;14.48;50.44;100927.31;6032447;23;101759;-52
2023/04/21 04:54:45;;;;;;;7.33;4.60;;;13.80;99.90;;;14.43;50.87;100927.47;6085003;22;99489;-48
2023/04/21 04:57:11;;;;;;;8.70;4.60;;;13.70;99.90;;;14.41;50.86;100926.69;6089725;22;102876;-48
2023/04/21 04:59:37;;;;;;;11.90;4.07;;;13.70;99.90;;;14.36;50.85;100928.72;6068604;23;98874;-52
2023/04/21 05:02:03;;;;;;;3.37;2.10;;;13.50;99.90;;;14.38;50.31;100932.16;6096698;22;100847;-50
2023/04/21 05:04:29;;;;;;;10.60;4.13;;;13.50;99.90;;;14.42;50.20;100931.06;6099923;22;96940;-50
2023/04/21 05:06:54;;;;;;;7.43;3.97;;;13.60;99.90;;;14.38;50.57;100932.16;6095414;22;97345;-50
2023/04/21 05:09:20;;;;;;;2.00;1.60;;;13.60;99.90;;;14.44;50.12;100931.88;6072493;23;106834;-53
2023/04/21 05:11:46;;;;;;;5.97;3.53;;;13.70;99.90;;;14.42;50.54;100936.38;6089827;22;102900;-54
2023/04/21 05:14:13;;;;;;;3.20;1.83;;;13.70;99.90;;;14.50;50.28;100942.22;6078141;22;97030;-51
2023/04/21 05:16:39;;;;;;;3.03;1.63;;;13.80;99.90;;;14.56;49.82;100944.59;6097554;22;97336;-52
2023/04/21 05:19:04;;;;;;;7.30;4.07;;;13.90;99.90;;;14.61;50.03;100944.38;6095851;22;97774;-50
2023/04/21 05:21:30;;;;;;;8.77;4.80;;;14.00;99.90;;;14.60;50.19;100947.94;6093690;22;97011;-54
2023/04/21 05:23:58;;;;;;;1.60;1.40;;;13.90;99.90;;;14.59;49.80;100952.38;6091443;22;97206;-50
2023/04/21 05:26:28;;;;;;;1.97;1.63;;;13.90;99.90;;;14.64;49.73;100948.69;6097619;22;97517;-49
2023/04/21 05:28:57;;;;;;;5.90;3.73;;;13.90;99.90;;;14.65;49.72;100950.41;6066556;23;97829;-50
2023/04/21 05:31:24;;;;;;;8.83;4.57;;;14.00;99.90;;;14.59;50.42;100947.09;6100999;22;99562;-54
2023/04/21 05:33:51;;;;;;;5.77;3.53;;;13.80;99.90;;;14.60;50.26;100947.94;6099578;22;96935;-47
2023/04/21 05:36:16;;;;;;;13.90;5.93;;;13.80;99.90;;;14.46;50.87;100945.94;6074781;23;96674;-49
2023/04/21 05:38:42;;;;;;;3.97;2.87;;;13.70;99.90;;;14.38;50.89;100955.19;6097386;22;97084;-53
2023/04/21 05:41:08;;;;;;;8.97;4.57;;;13.50;99.90;;;14.31;51.37;100957.25;6099031;22;99403;-50
2023/04/21 05:43:43;;;;;;;2.53;1.30;;;13.50;99.90;;;14.34;50.47;100957.13;6089729;22;97260;-53
2023/04/21 05:46:09;;;;;;;4.87;2.67;;;13.50;99.90;;;14.38;50.55;100947.22;6097920;22;97221;-50
2023/04/21 05:48:35;;;;;;;7.40;4.40;;;13.60;99.90;;;14.21;52.54;100955.97;6095599;22;96989;-50
2023/04/21 05:51:09;;;;;;;4.07;2.57;;;13.50;99.90;;;14.19;51.53;100941.91;6094128;22;98677;-50
2023/04/21 05:53:35;;;;;;;5.77;3.50;;;13.40;99.90;;;14.16;52.09;100952.63;6060079;22;97225;-48
2023/04/21 05:56:00;;;;;;;7.93;4.73;;;13.40;99.90;;;14.10;52.42;100955.59;6095599;22;96801;-51
2023/04/21 05:58:26;;;;;;;9.57;3.97;;;13.30;99.90;;;14.03;52.12;100951.47;6097063;22;115179;-51
2023/04/21 06:00:52;;;;;;;12.73;4.70;;;13.20;99.90;;;14.00;52.65;100955.13;6097114;22;110580;-51
2023/04/21 06:03:18;;;;;;;8.80;4.47;;;13.20;99.90;;;14.04;51.73;100953.22;6096948;22;97228;-51
2023/04/21 06:05:43;;;;;;;8.60;4.50;;;13.20;99.90;;;14.04;52.32;100954.09;6090406;22;97188;-53
2023/04/21 06:08:09;;;;;;;8.73;5.03;;;13.30;99.90;;;14.04;52.34;100950.56;6065283;23;97152;-52
2023/04/21 06:10:35;;;;;;;7.23;3.47;;;13.20;99.90;;;14.08;51.61;100954.81;6092949;22;97442;-54
2023/04/21 06:13:01;;;;;;;7.03;3.23;;;13.30;99.90;;;14.10;51.79;100943.19;6094881;22;102066;-49
2023/04/21 06:15:27;;;;;;;10.00;4.57;;;13.30;99.90;;;14.15;51.49;100937.66;6099997;23;97393;-51
2023/04/21 06:17:54;;;;;;;8.57;4.17;;;13.40;99.90;;;14.15;51.71;100946.47;6091884;22;97814;-53
2023/04/21 06:20:20;;;;;;;9.57;4.53;;;13.40;99.90;;;14.20;51.28;100943.63;6099139;22;97358;-50
2023/04/21 06:22:45;;;;;;;6.70;3.80;;;13.50;99.90;;;14.26;51.36;100943.34;6087739;22;97062;-50
2023/04/21 06:25:11;;;;;;;8.53;4.13;;;13.50;99.90;;;14.29;51.63;100936.09;6089009;22;103580;-52
2023/04/21 06:27:37;;;;;;;10.30;5.30;;;13.60;99.90;;;14.30;51.75;100944.91;6085148;22;123985;-52
2023/04/21 06:30:03;;;;;;;10.03;4.70;;;13.60;99.90;;;14.27;51.58;100945.06;6091690;22;114731;-51
2023/04/21 06:32:28;;;;;;;5.17;3.20;;;13.50;99.90;;;14.30;51.16;100950.22;6088995;22;96952;-49
2023/04/21 06:34:54;;;;;;;11.00;5.53;;;13.50;99.90;;;14.30;51.55;100951.06;6048605;22;107266;-47
2023/04/21 06:37:20;;;;;;;9.37;4.90;;;13.60;99.90;;;14.27;51.71;100945.91;6087372;22;98044;-47
2023/04/21 06:39:46;;;;;;;7.17;4.03;;;13.50;99.90;;;14.24;52.41;100945.22;6084508;22;120311;-49
2023/04/21 06:42:11;;;;;;;6.63;3.30;;;13.50;99.90;;;14.24;51.45;100951.38;6088986;22;98471;-49
2023/04/21 06:44:37;;;;;;;5.87;3.20;;;13.50;99.90;;;14.37;51.06;100951.66;6087336;22;97156;-52
2023/04/21 06:47:03;;;;;;;2.53;2.03;;;13.70;99.90;;;14.36;51.22;100939.34;6089045;22;98073;-50
2023/04/21 06:49:29;;;;;;;3.20;2.07;;;13.80;99.90;;;14.47;50.68;100936.22;6061373;23;97646;-53
2023/04/21 06:51:55;;;;;;;2.73;1.30;;;13.90;99.90;;;14.61;50.35;100935.53;6082654;22;97328;-49
2023/04/21 06:54:21;;;;;;;5.03;2.80;;;14.10;99.90;;;14.69;50.18;100944.00;6093262;23;97220;-51
2023/04/21 06:56:47;;;;;;;2.23;1.50;;;14.20;99.90;;;14.78;49.80;100935.59;6037597;23;97421;-53
2023/04/21 06:59:12;;;;;;;1.97;1.40;;;14.40;99.90;;;14.92;49.79;100942.91;6091037;22;102631;-50
2023/04/21 07:01:38;;;;;;;10.90;4.80;;;14.50;99.90;;;15.02;49.96;100949.47;6089558;22;97183;-49
2023/04/21 07:04:04;;;;;;;10.57;5.10;;;14.70;99.90;;;14.95;51.16;100950.72;6093171;22;97265;-51
2023/04/21 07:06:30;;;;;;;8.27;4.43;;;14.50;99.90;;;14.84;51.43;100940.59;6086002;22;97877;-52
2023/04/21 07:08:56;;;;;;;8.83;4.07;;;14.30;99.90;;;14.73;52.97;100943.78;6058151;23;99205;-49
2023/04/21 07:11:22;;;;;;;5.97;3.47;;;14.20;99.90;;;14.68;51.16;100935.19;6061892;23;114242;-51
2023/04/21 07:13:48;;;;;;;7.97;4.77;;;14.10;99.90;;;14.59;54.79;100936.47;6082646;22;97396;-49
2023/04/21 07:16:14;;;;;;;2.90;1.80;;;14.00;99.90;;;14.62;50.63;100929.31;6088577;22;98193;-47
2023/04/21 07:18:40;;;;;;;2.27;1.63;;;14.00;99.90;;;14.72;50.31;100935.88;6082295;22;96987;-47
2023/04/21 07:21:06;;;;;;;2.97;1.70;;;14.20;99.90;;;14.88;49.70;100936.84;6089795;22;97061;-48
2023/04/21 07:23:32;;;;;;;3.47;1.97;;;14.50;99.90;;;14.96;49.73;100933.84;6080110;22;116450;-51
2023/04/21 07:25:58;;;;;;;6.93;4.07;;;14.60;99.90;;;14.88;54.51;100934.19;6071905;22;101575;-52
2023/04/21 07:28:25;;;;;;;3.37;2.03;;;14.50;99.90;;;14.88;50.52;100939.50;6072639;22;101232;-53
2023/04/21 07:30:51;;;;;;;2.47;1.67;;;14.50;99.90;;;14.89;49.99;100941.22;6074817;22;97849;-52
2023/04/21 07:33:16;;;;;;;12.40;4.17;;;14.40;99.90;;;14.93;50.19;100945.47;6075660;22;102961;-49
2023/04/21 07:35:42;;;;;;;2.90;1.97;;;14.50;99.90;;;15.02;49.41;100945.00;6071929;22;127355;-51
2023/04/21 07:38:08;;;;;;;7.30;4.30;;;14.60;99.90;;;15.06;50.85;100932.44;6075817;22;97656;-52
2023/04/21 07:40:34;;;;;;;8.03;4.17;;;14.70;99.90;;;15.10;49.51;100934.88;6072210;22;107395;-53
2023/04/21 07:42:59;;;;;;;3.00;1.70;;;14.70;99.90;;;15.17;49.41;100933.59;6078691;22;105712;-54
2023/04/21 07:45:25;;;;;;;10.17;5.13;;;14.90;99.90;;;15.10;50.89;100929.56;6050186;23;111913;-49
2023/04/21 07:47:51;;;;;;;3.40;2.60;;;14.70;99.90;;;15.21;49.21;100925.50;6087487;22;117902;-51
2023/04/21 07:50:17;;;;;;;2.33;1.90;;;14.80;99.90;;;15.11;49.67;100933.94;6093463;22;97152;-52
2023/04/21 07:52:43;;;;;;;6.67;4.50;;;14.70;99.90;;;15.11;51.71;100931.28;6088438;22;97162;-52
2023/04/21 07:55:09;;;;;;;2.50;1.90;;;14.70;99.90;;;15.26;49.12;100931.44;6090031;22;109958;-53
2023/04/21 07:57:37;;;;;;;2.67;1.93;;;14.90;99.90;;;15.36;48.56;100941.53;6053622;22;97490;-51
2023/04/21 08:00:05;;;;;;;3.50;2.17;;;15.10;99.90;;;15.30;50.14;100938.31;6091811;22;97135;-52
2023/04/21 08:02:30;;;;;;;8.30;4.63;;;15.10;99.90;;;15.35;52.06;100942.47;6089902;22;97139;-47
2023/04/21 08:04:56;;;;;;;2.67;1.93;;;15.10;99.90;;;15.33;49.15;100943.47;6087123;22;97941;-50
2023/04/21 08:07:22;;;;;;;6.47;4.00;;;15.00;99.90;;;15.32;53.35;100944.41;6079929;22;110698;-51
2023/04/21 08:09:49;;;;;;;7.20;3.67;;;15.00;99.90;;;15.22;50.34;100937.84;6050643;22;103615;-50
2023/04/21 08:12:15;;;;;;;7.43;4.30;;;14.90;99.90;;;15.23;54.70;100936.91;6085935;22;97911;-47
2023/04/21 08:14:40;;;;;;;8.97;4.63;;;14.90;99.90;;;15.16;51.23;100925.72;5995031;23;96917;-51
2023/04/21 08:17:06;;;;;;;5.17;2.77;;;14.80;99.90;;;15.28;49.20;100932.22;6081762;22;97676;-51
2023/04/21 08:19:32;;;;;;;9.13;4.80;;;14.90;99.90;;;15.22;53.39;100930.75;6056277;22;111604;-57
2023/04/21 08:21:58;;;;;;;3.40;2.07;;;14.90;99.90;;;15.32;49.01;100931.13;6064248;23;97657;-52
2023/04/21 08:24:23;;;;;;;11.77;5.37;;;15.00;99.90;;;15.35;50.10;100925.66;6054747;23;98641;-52
2023/04/21 08:26:49;;;;;;;9.60;5.50;;;15.00;99.90;;;15.14;57.12;100923.13;6073102;22;109598;-47
2023/04/21 08:29:15;;;;;;;8.10;4.47;;;14.80;99.90;;;15.10;55.55;100931.34;6054371;23;96906;-53
2023/04/21 08:31:41;;;;;;;10.10;5.23;;;14.70;99.90;;;15.08;54.98;100923.47;6073439;22;107130;-55
2023/04/21 08:34:08;;;;;;;11.77;6.00;;;14.70;99.90;;;14.86;56.89;100922.78;6079753;22;97675;-49
2023/04/21 08:36:34;;;;;;;3.43;2.23;;;14.50;99.90;;;14.88;50.93;100921.78;6049358;22;97642;-48
2023/04/21 08:39:00;;;;;;;3.80;1.73;;;14.50;99.90;;;15.07;49.89;100926.19;6085443;22;97093;-48
2023/04/21 08:41:26;;;;;;;4.73;2.70;;;14.80;99.90;;;15.18;49.57;100924.69;6078847;22;97540;-49
2023/04/21 08:43:52;;;;;;;9.97;5.13;;;15.00;99.90;;;15.34;49.71;100931.94;6049639;22;100257;-51
2023/04/21 08:46:19;;;;;;;7.67;4.00;;;15.10;99.90;;;15.42;49.38;100933.22;6089384;23;100375;-51
2023/04/21 08:48:46;;;;;;;3.63;2.30;;;15.20;99.90;;;15.48;48.79;100919.66;6060287;22;97100;-54
2023/04/21 08:51:20;;;;;;;2.10;1.50;;;15.20;99.90;;;15.59;48.45;100919.09;6081296;23;97308;-55
2023/04/21 08:53:46;;;;;;;4.77;2.00;;;15.40;99.90;;;15.74;48.31;100923.59;6065871;22;97590;-52
2023/04/21 08:56:11;;;;;;;1.83;1.40;;;15.60;99.90;;;15.91;47.75;100913.88;6067961;23;97085;-52
2023/04/21 08:58:37;;;;;;;3.70;2.33;;;15.90;99.90;;;16.04;47.49;100914.94;6075238;22;97093;-50
2023/04/21 09:01:03;;;;;;;8.50;4.33;;;16.00;99.90;;;16.11;48.12;100924.31;6082432;22;97505;-51
2023/04/21 09:03:30;;;;;;;7.73;4.50;;;16.10;99.90;;;16.06;52.25;100924.56;6054926;23;99066;-51
2023/04/21 09:06:07;;;;;;;3.03;1.93;;;16.00;99.90;;;16.10;47.18;100919.94;6048484;22;98142;-52
2023/04/21 09:08:54;;;;;;;10.17;5.07;;;15.90;99.90;;;15.94;55.59;100924.38;6086725;22;97093;-55
2023/04/21 09:11:20;;;;;;;8.90;5.03;;;15.80;99.90;;;15.77;53.26;100926.13;6063019;23;97359;-54
2023/04/21 09:13:50;;;;;;;9.83;5.00;;;15.50;99.90;;;15.71;52.74;100926.44;6086137;22;97316;-51
2023/04/21 09:16:19;;;;;;;3.63;2.37;;;15.40;99.90;;;15.72;48.86;100925.50;6084824;22;97056;-50
2023/04/21 09:18:46;;;;;;;2.57;1.87;;;15.40;99.90;;;15.77;48.29;100918.16;6079114;22;97399;-49
2023/04/21 09:21:18;;;;;;;11.37;5.63;;;15.60;99.90;;;15.71;53.14;100918.47;6095367;23;97240;-54
2023/04/21 09:23:52;;;;;;;3.87;2.33;;;15.50;99.90;;;15.71;49.65;100917.59;6082216;22;99786;-49
2023/04/21 09:26:23;;;;;;;10.27;4.97;;;15.50;99.90;;;15.73;52.21;100916.56;6089611;22;98260;-51
2023/04/21 09:28:50;;;;;;;8.93;5.33;;;15.50;99.90;;;15.73;51.11;100915.72;6086008;22;97419;-51
2023/04/21 09:31:27;;;;;;;2.23;1.83;;;15.50;99.90;;;15.82;48.07;100911.72;6080912;22;98897;-52
2023/04/21 09:33:56;;;;;;;9.97;4.93;;;15.70;99.90;;;15.96;50.38;100906.53;6080716;22;100782;-49
2023/04/21 09:36:28;;;;;;;4.63;2.30;;;15.90;99.90;;;16.04;47.51;100909.59;6068654;23;97259;-50
2023/04/21 09:39:01;;;;;;;2.43;1.73;;;16.20;99.90;;;16.17;47.32;100910.66;6073109;22;96827;-52
2023/04/21 09:41:27;;;;;;;5.23;2.50;;;16.30;99.90;;;16.28;47.19;100902.94;6078533;22;97698;-54
2023/04/21 09:43:53;;;;;;;3.57;2.00;;;16.50;99.90;;;16.36;46.85;100900.72;6080206;22;116922;-52
2023/04/21 09:46:22;;;;;;;2.87;1.30;;;16.60;99.90;;;16.38;46.78;100894.47;6088524;22;97429;-48
2023/04/21 09:48:48;;;;;;;4.70;2.23;;;16.70;99.90;;;16.50;46.99;100888.44;6085207;22;97013;-50
2023/04/21 09:51:16;;;;;;;8.13;3.40;;;16.80;99.90;;;16.66;48.88;100881.31;6090039;22;96862;-53
2023/04/21 09:53:44;;;;;;;2.93;2.17;;;16.90;99.90;;;16.69;46.69;100886.47;6082689;22;97638;-53
2023/04/21 09:56:13;;;;;;;2.77;2.03;;;16.90;99.90;;;16.65;46.79;100885.78;6088957;22;98480;-52
2023/04/21 09:58:47;;;;;;;2.93;2.23;;;16.90;99.90;;;16.77;51.14;100878.03;6087739;22;97128;-53
2023/04/21 10:01:14;;;;;;;4.00;2.03;;;17.00;99.90;;;16.69;46.38;100874.97;6090117;22;97337;-50
2023/04/21 10:03:44;;;;;;;5.43;3.07;;;17.00;99.90;;;16.72;47.14;100870.31;6083253;22;97616;-51
2023/04/21 10:06:11;;;;;;;2.53;1.60;;;17.00;99.90;;;16.59;47.08;100869.28;6088429;22;98070;-52
2023/04/21 10:08:37;;;;;;;3.23;2.33;;;17.00;99.90;;;16.46;47.56;100876.22;6085911;22;97462;-50